Time;durP1;ratioP1;P1;durP2;ratioP2;P2;SDS_P1;SDS_P2;PMS_P1;PMS_P2;Temp;Humidity;BMP_temperature;BMP_pressure;BME280_temperature;BME280_humidity;BME280_pressure;Samples;Min_cycle;Max_cycle;Signal;HPM_P1;HPM_P2
2021/06/28 00:00:21;;;;;;;3.75;3.45;;;;;25.00;101334.00;;;;5106946;28;20200;-77
2021/06/28 00:02:48;;;;;;;3.40;3.10;;;;;25.00;101334.00;;;;5088398;28;20613;-78
2021/06/28 00:05:17;;;;;;;6.07;3.85;;;;;25.00;101327.00;;;;5093288;28;20251;-78
2021/06/28 00:07:47;;;;;;;4.75;4.32;;;;;25.00;101325.00;;;;5106126;28;20201;-78
2021/06/28 00:10:17;;;;;;;6.22;4.03;;;;;25.00;101328.00;;;;5106001;28;20205;-77
2021/06/28 00:12:45;;;;;;;4.47;3.45;;;;;25.00;101333.00;;;;5107524;28;20714;-78
2021/06/28 00:15:15;;;;;;;4.30;3.90;;;;;25.00;101329.00;;;;5107524;28;20194;-77
2021/06/28 00:17:42;;;;;;;3.70;3.40;;;;;25.00;101326.00;;;;5107247;28;20210;-78
2021/06/28 00:20:11;;;;;;;4.00;3.63;;;;;25.00;101327.00;;;;5107025;28;20194;-77
2021/06/28 00:22:39;;;;;;;4.90;4.00;;;;;25.00;101321.00;;;;5107472;28;20194;-78
2021/06/28 00:25:11;;;;;;;6.18;4.28;;;;;25.00;101315.00;;;;5107874;28;20209;-78
2021/06/28 00:27:38;;;;;;;4.15;3.35;;;;;25.00;101322.00;;;;5106854;28;20209;-78
2021/06/28 00:30:07;;;;;;;4.47;4.07;;;;;25.00;101316.00;;;;5106874;28;20212;-78
2021/06/28 00:32:34;;;;;;;4.38;3.97;;;;;25.00;101316.00;;;;5105902;28;20221;-78
2021/06/28 00:35:01;;;;;;;4.43;3.97;;;;;25.00;101307.00;;;;5107417;28;20193;-78
2021/06/28 00:37:28;;;;;;;4.90;4.40;;;;;25.00;101311.00;;;;5108044;28;20234;-78
2021/06/28 00:39:56;;;;;;;3.80;3.50;;;;;25.00;101302.00;;;;5106827;28;20209;-78
2021/06/28 00:42:25;;;;;;;4.75;3.60;;;;;25.00;101295.00;;;;5096309;28;20199;-78
2021/06/28 00:44:53;;;;;;;4.22;3.80;;;;;25.00;101290.00;;;;5092969;28;20205;-79
2021/06/28 00:47:21;;;;;;;4.53;4.10;;;;;24.90;101287.00;;;;5105733;28;20196;-78
2021/06/28 00:49:48;;;;;;;6.20;4.20;;;;;24.90;101281.00;;;;5107176;28;20202;-78
2021/06/28 00:52:16;;;;;;;4.45;4.05;;;;;24.90;101274.00;;;;5100618;28;20225;-78
2021/06/28 00:54:44;;;;;;;10.52;4.85;;;;;24.90;101273.00;;;;5110168;28;20659;-78
2021/06/28 00:57:11;;;;;;;6.20;3.83;;;;;24.90;101270.00;;;;5111757;28;20213;-78
2021/06/28 00:59:41;;;;;;;5.15;4.65;;;;;24.90;101270.00;;;;5110839;28;20589;-78
2021/06/28 01:02:08;;;;;;;7.45;4.05;;;;;24.90;101270.00;;;;5112084;28;20209;-78
2021/06/28 01:04:35;;;;;;;5.05;4.55;;;;;24.90;101272.00;;;;5110584;28;20197;-78
2021/06/28 01:07:02;;;;;;;5.88;3.88;;;;;24.90;101272.00;;;;5101555;28;20197;-77
2021/06/28 01:09:30;;;;;;;4.57;3.92;;;;;24.80;101269.00;;;;5111500;28;20204;-77
2021/06/28 01:11:57;;;;;;;5.07;4.57;;;;;24.80;101268.00;;;;5111533;28;20596;-78
2021/06/28 01:14:25;;;;;;;4.80;4.32;;;;;24.80;101267.00;;;;5106389;28;20201;-77
2021/06/28 01:16:54;;;;;;;11.30;4.60;;;;;24.80;101271.00;;;;5107228;28;20198;-78
2021/06/28 01:19:26;;;;;;;9.43;4.75;;;;;24.80;101268.00;;;;5097725;28;20221;-78
2021/06/28 01:21:55;;;;;;;4.45;4.05;;;;;24.80;101267.00;;;;5107516;28;20200;-77
2021/06/28 01:24:24;;;;;;;4.82;4.43;;;;;24.70;101258.00;;;;5109790;28;20241;-77
2021/06/28 01:26:52;;;;;;;4.80;4.28;;;;;24.70;101264.00;;;;5110857;28;20198;-77
2021/06/28 01:29:19;;;;;;;5.13;4.40;;;;;24.70;101262.00;;;;5109837;28;20686;-77
2021/06/28 01:31:46;;;;;;;5.35;4.22;;;;;24.70;101259.00;;;;5110822;28;20217;-77
2021/06/28 01:34:14;;;;;;;5.15;4.65;;;;;24.70;101250.00;;;;5102329;28;20190;-78
2021/06/28 01:36:41;;;;;;;4.85;4.30;;;;;24.70;101253.00;;;;5110397;28;20193;-78
2021/06/28 01:39:08;;;;;;;4.97;4.50;;;;;24.70;101250.00;;;;5110368;28;20199;-77
2021/06/28 01:41:37;;;;;;;5.00;4.30;;;;;24.70;101249.00;;;;5111014;28;21081;-78
2021/06/28 01:44:04;;;;;;;3.63;3.33;;;;;24.70;101244.00;;;;5111321;28;20198;-77
2021/06/28 01:46:31;;;;;;;4.60;4.15;;;;;24.70;101260.00;;;;5108407;28;20201;-77
2021/06/28 01:48:58;;;;;;;4.90;4.40;;;;;24.70;101261.00;;;;5108913;28;20204;-78
2021/06/28 01:51:26;;;;;;;4.97;4.57;;;;;24.70;101259.00;;;;5109864;28;20234;-77
2021/06/28 01:53:53;;;;;;;4.93;4.43;;;;;24.70;101264.00;;;;5110123;28;20205;-77
2021/06/28 01:56:20;;;;;;;4.65;4.25;;;;;24.70;101257.00;;;;5108980;28;20680;-77
2021/06/28 01:58:49;;;;;;;5.38;4.88;;;;;24.60;101255.00;;;;5111347;28;20225;-77
2021/06/28 02:01:17;;;;;;;5.05;4.55;;;;;24.60;101257.00;;;;5110133;28;20192;-77
2021/06/28 02:03:44;;;;;;;6.50;4.57;;;;;24.60;101247.00;;;;5108722;28;20751;-77
2021/06/28 02:06:12;;;;;;;6.35;4.38;;;;;24.60;101255.00;;;;5108395;28;20208;-77
2021/06/28 02:08:39;;;;;;;5.07;4.57;;;;;24.60;101249.00;;;;5111254;28;20266;-77
2021/06/28 02:11:07;;;;;;;4.97;4.47;;;;;24.60;101251.00;;;;5110936;28;20197;-78
2021/06/28 02:13:37;;;;;;;6.10;5.18;;;;;24.60;101241.00;;;;5109519;28;20224;-78
2021/06/28 02:16:06;;;;;;;5.25;4.75;;;;;24.50;101245.00;;;;5109805;28;20197;-78
2021/06/28 02:18:34;;;;;;;6.20;5.53;;;;;24.60;101247.00;;;;5094723;28;20205;-78
2021/06/28 02:21:01;;;;;;;5.60;5.10;;;;;24.60;101259.00;;;;5109199;28;20201;-77
2021/06/28 02:23:32;;;;;;;4.97;4.47;;;;;24.50;101263.00;;;;5109055;28;20198;-77
2021/06/28 02:26:02;;;;;;;5.50;4.97;;;;;24.50;101264.00;;;;5109133;28;20197;-77
2021/06/28 02:28:31;;;;;;;6.15;4.88;;;;;24.50;101267.00;;;;5107744;28;20221;-78
2021/06/28 02:30:59;;;;;;;6.35;4.78;;;;;24.50;101271.00;;;;5110278;28;20682;-77
2021/06/28 02:33:28;;;;;;;5.22;4.72;;;;;24.50;101262.00;;;;5109787;28;20316;-78
2021/06/28 02:35:56;;;;;;;6.22;4.82;;;;;24.50;101259.00;;;;5109071;28;20671;-78
2021/06/28 02:38:24;;;;;;;4.93;4.43;;;;;24.50;101261.00;;;;5109944;28;20225;-77
2021/06/28 02:40:51;;;;;;;5.20;4.70;;;;;24.50;101259.00;;;;5110093;28;20202;-77
2021/06/28 02:43:20;;;;;;;7.97;4.72;;;;;24.50;101271.00;;;;5108303;28;20666;-78
2021/06/28 02:45:47;;;;;;;4.82;4.32;;;;;24.50;101273.00;;;;5108587;28;20197;-77
2021/06/28 02:48:15;;;;;;;4.88;4.45;;;;;24.50;101272.00;;;;5109009;28;20202;-78
2021/06/28 02:50:43;;;;;;;5.88;4.88;;;;;24.40;101275.00;;;;5108007;28;20576;-78
2021/06/28 02:53:11;;;;;;;5.32;4.85;;;;;24.40;101275.00;;;;5088647;28;20238;-77
2021/06/28 02:55:39;;;;;;;4.53;4.13;;;;;24.50;101269.00;;;;5109115;28;20201;-77
2021/06/28 02:58:06;;;;;;;5.32;4.50;;;;;24.40;101272.00;;;;5109944;28;20225;-77
2021/06/28 03:00:33;;;;;;;4.70;4.30;;;;;24.40;101272.00;;;;5108536;28;20214;-78
2021/06/28 03:03:00;;;;;;;4.78;4.25;;;;;24.40;101275.00;;;;5110011;28;20196;-77
2021/06/28 03:05:28;;;;;;;5.05;4.55;;;;;24.40;101267.00;;;;5107444;28;20193;-77
2021/06/28 03:07:57;;;;;;;5.47;4.50;;;;;24.40;101274.00;;;;5110261;28;20597;-78
2021/06/28 03:10:25;;;;;;;5.20;4.30;;;;;24.30;101276.00;;;;5108644;28;20342;-77
2021/06/28 03:12:52;;;;;;;4.25;3.85;;;;;24.30;101275.00;;;;5109379;28;20224;-77
2021/06/28 03:15:22;;;;;;;8.13;4.38;;;;;24.30;101265.00;;;;5106626;28;20194;-78
2021/06/28 03:17:49;;;;;;;6.03;5.43;;;;;24.30;101262.00;;;;5097223;28;20676;-77
2021/06/28 03:20:17;;;;;;;5.50;4.50;;;;;24.30;101264.00;;;;5097519;28;20193;-77
2021/06/28 03:22:46;;;;;;;7.13;5.00;;;;;24.20;101262.00;;;;5109123;28;20210;-77
2021/06/28 03:25:17;;;;;;;5.30;4.45;;;;;24.20;101268.00;;;;5107887;28;20185;-77
2021/06/28 03:27:45;;;;;;;5.63;4.35;;;;;24.20;101268.00;;;;5109578;28;20201;-77
2021/06/28 03:30:14;;;;;;;5.25;4.72;;;;;24.20;101269.00;;;;5108289;28;20232;-77
2021/06/28 03:32:42;;;;;;;5.50;4.95;;;;;24.20;101273.00;;;;5109032;28;20225;-77
2021/06/28 03:35:10;;;;;;;5.50;5.00;;;;;24.20;101276.00;;;;5109210;28;20197;-77
2021/06/28 03:37:38;;;;;;;5.57;5.00;;;;;24.10;101275.00;;;;5108866;28;20653;-78
2021/06/28 03:40:07;;;;;;;6.13;4.90;;;;;24.10;101276.00;;;;5109286;28;20198;-77
2021/06/28 03:42:36;;;;;;;5.03;4.53;;;;;24.10;101279.00;;;;5103902;28;20204;-78
2021/06/28 03:45:04;;;;;;;6.90;4.97;;;;;24.10;101279.00;;;;5107011;28;20196;-78
2021/06/28 03:47:31;;;;;;;6.82;5.30;;;;;24.10;101280.00;;;;5107908;28;20208;-77
2021/06/28 03:49:58;;;;;;;7.93;5.25;;;;;24.10;101279.00;;;;5108116;28;20443;-77
2021/06/28 03:52:25;;;;;;;6.50;5.38;;;;;24.10;101276.00;;;;5104422;28;20209;-77
2021/06/28 03:54:52;;;;;;;6.07;5.43;;;;;24.10;101266.00;;;;5094557;28;20609;-78
2021/06/28 03:57:20;;;;;;;5.90;5.38;;;;;24.10;101269.00;;;;5108293;28;20217;-77
2021/06/28 03:59:48;;;;;;;5.78;5.20;;;;;24.10;101264.00;;;;5108823;28;20193;-77
2021/06/28 04:02:16;;;;;;;6.72;6.13;;;;;24.10;101268.00;;;;5108388;28;20194;-77
2021/06/28 04:04:48;;;;;;;7.00;5.63;;;;;24.10;101263.00;;;;5108691;28;20435;-77
2021/06/28 04:07:15;;;;;;;7.25;5.78;;;;;24.10;101264.00;;;;5109142;28;20714;-77
2021/06/28 04:09:43;;;;;;;6.18;5.53;;;;;24.10;101257.00;;;;5107197;28;20194;-77
2021/06/28 04:12:11;;;;;;;5.88;5.35;;;;;24.10;101267.00;;;;5107894;28;20197;-77
2021/06/28 04:14:40;;;;;;;7.07;5.45;;;;;24.10;101263.00;;;;5106941;28;20205;-77
2021/06/28 04:17:09;;;;;;;6.75;6.05;;;;;24.10;101266.00;;;;5107523;28;20201;-77
2021/06/28 04:19:36;;;;;;;6.10;5.57;;;;;24.10;101264.00;;;;5108249;28;20209;-77
2021/06/28 04:22:04;;;;;;;7.97;6.25;;;;;24.10;101261.00;;;;5109189;28;20202;-77
2021/06/28 04:24:31;;;;;;;6.65;6.03;;;;;24.10;101265.00;;;;5107542;28;20590;-78
2021/06/28 04:26:58;;;;;;;7.63;6.10;;;;;24.10;101268.00;;;;5110381;28;20212;-77
2021/06/28 04:29:26;;;;;;;7.03;6.35;;;;;24.10;101269.00;;;;5110889;28;20202;-77
2021/06/28 04:31:53;;;;;;;8.82;6.47;;;;;24.20;101259.00;;;;5111905;28;20620;-78
2021/06/28 04:34:22;;;;;;;7.75;6.65;;;;;24.20;101262.00;;;;5112516;28;20221;-78
2021/06/28 04:36:50;;;;;;;7.97;7.18;;;;;24.20;101264.00;;;;5112147;28;20229;-78
2021/06/28 04:39:18;;;;;;;6.85;6.25;;;;;24.20;101252.00;;;;5111950;28;20223;-77
2021/06/28 04:41:45;;;;;;;7.45;6.32;;;;;24.20;101257.00;;;;5112144;28;20213;-78
2021/06/28 04:44:12;;;;;;;7.18;6.47;;;;;24.30;101260.00;;;;5111601;28;20663;-78
2021/06/28 04:46:40;;;;;;;9.40;6.40;;;;;24.30;101270.00;;;;5110979;28;20197;-78
2021/06/28 04:49:07;;;;;;;7.50;6.75;;;;;24.30;101273.00;;;;5112163;28;20201;-78
2021/06/28 04:51:36;;;;;;;6.97;6.32;;;;;24.40;101267.00;;;;5110338;28;20197;-77
2021/06/28 04:54:03;;;;;;;6.88;6.18;;;;;24.40;101275.00;;;;5112480;28;20312;-77
2021/06/28 04:56:30;;;;;;;8.35;7.38;;;;;24.40;101265.00;;;;5111167;28;20658;-77
2021/06/28 04:58:58;;;;;;;7.50;6.65;;;;;24.50;101269.00;;;;5111507;28;20206;-78
2021/06/28 05:01:25;;;;;;;7.85;6.80;;;;;24.50;101276.00;;;;5111077;28;20481;-80
2021/06/28 05:03:52;;;;;;;7.72;7.03;;;;;24.60;101271.00;;;;5110903;28;20210;-78
2021/06/28 05:06:19;;;;;;;7.82;7.03;;;;;24.60;101276.00;;;;5111356;28;20198;-79
2021/06/28 05:08:48;;;;;;;7.20;6.45;;;;;24.60;101269.00;;;;5106992;28;20198;-79
2021/06/28 05:11:15;;;;;;;7.55;6.80;;;;;24.70;101274.00;;;;5113154;28;20206;-79
2021/06/28 05:13:42;;;;;;;7.90;7.10;;;;;24.70;101269.00;;;;5111880;28;20223;-79
2021/06/28 05:16:09;;;;;;;8.73;7.43;;;;;24.80;101275.00;;;;5109878;28;20197;-79
2021/06/28 05:18:37;;;;;;;6.45;5.85;;;;;24.80;101266.00;;;;5110258;28;20202;-78
2021/06/28 05:21:04;;;;;;;7.50;6.38;;;;;24.90;101259.00;;;;5110878;28;20200;-79
2021/06/28 05:23:32;;;;;;;7.72;6.93;;;;;25.00;101259.00;;;;5109970;28;20204;-78
2021/06/28 05:26:00;;;;;;;8.88;6.57;;;;;25.00;101258.00;;;;5109182;28;20189;-79
2021/06/28 05:28:28;;;;;;;6.95;6.25;;;;;25.10;101257.00;;;;5109964;28;20598;-79
2021/06/28 05:30:57;;;;;;;7.57;6.78;;;;;25.10;101260.00;;;;5110717;28;20201;-79
2021/06/28 05:33:24;;;;;;;8.07;7.32;;;;;25.20;101257.00;;;;5111506;28;20271;-80
2021/06/28 05:35:51;;;;;;;8.30;7.30;;;;;25.20;101249.00;;;;5111514;28;20217;-79
2021/06/28 05:38:18;;;;;;;7.47;6.32;;;;;25.30;101246.00;;;;5109820;28;20233;-78
2021/06/28 05:40:46;;;;;;;8.30;7.22;;;;;25.30;101250.00;;;;5110219;28;20201;-78
2021/06/28 05:43:14;;;;;;;7.38;6.32;;;;;25.40;101253.00;;;;5111731;28;20206;-79
2021/06/28 05:45:41;;;;;;;8.57;6.93;;;;;25.50;101256.00;;;;5111253;28;20202;-78
2021/06/28 05:48:09;;;;;;;7.57;6.88;;;;;25.50;101251.00;;;;5111275;28;20208;-77
2021/06/28 05:50:36;;;;;;;7.03;6.30;;;;;25.50;101252.00;;;;5110826;28;20550;-78
2021/06/28 05:53:04;;;;;;;7.80;6.90;;;;;25.50;101250.00;;;;5092743;28;20197;-78
2021/06/28 05:55:31;;;;;;;7.38;6.68;;;;;25.60;101258.00;;;;5106418;28;20197;-80
2021/06/28 05:57:58;;;;;;;9.15;6.95;;;;;25.70;101253.00;;;;5108278;28;20710;-79
2021/06/28 06:00:27;;;;;;;7.72;6.93;;;;;25.70;101244.00;;;;5108548;28;20193;-77
2021/06/28 06:02:54;;;;;;;8.48;7.57;;;;;25.80;101246.00;;;;5109868;28;20225;-77
2021/06/28 06:05:22;;;;;;;8.05;6.88;;;;;25.80;101251.00;;;;5111798;28;20250;-77
2021/06/28 06:07:49;;;;;;;7.70;7.00;;;;;25.90;101252.00;;;;5109787;28;20210;-78
2021/06/28 06:10:18;;;;;;;8.20;7.40;;;;;25.90;101255.00;;;;5107888;28;20577;-78
2021/06/28 06:12:46;;;;;;;8.70;6.93;;;;;26.00;101253.00;;;;5102293;28;20214;-77
2021/06/28 06:15:14;;;;;;;6.22;5.68;;;;;26.10;101248.00;;;;5098410;28;20224;-79
2021/06/28 06:17:43;;;;;;;7.10;6.40;;;;;26.10;101246.00;;;;5106296;28;20190;-78
2021/06/28 06:20:11;;;;;;;7.95;6.53;;;;;26.20;101242.00;;;;5110076;28;20202;-79
2021/06/28 06:22:39;;;;;;;9.88;7.65;;;;;26.30;101244.00;;;;5104935;28;20198;-80
2021/06/28 06:25:07;;;;;;;8.02;7.25;;;;;26.30;101245.00;;;;5102193;28;20204;-79
2021/06/28 06:27:35;;;;;;;7.78;6.97;;;;;26.40;101236.00;;;;5105007;28;20202;-77
2021/06/28 06:30:04;;;;;;;7.70;6.93;;;;;26.40;101232.00;;;;5110924;28;20200;-78
2021/06/28 06:32:31;;;;;;;10.30;6.35;;;;;26.50;101237.00;;;;5108866;28;20197;-77
2021/06/28 06:35:00;;;;;;;7.57;6.78;;;;;26.50;101237.00;;;;5110767;28;20221;-77
2021/06/28 06:37:27;;;;;;;9.88;7.78;;;;;26.60;101239.00;;;;5109380;28;20229;-78
2021/06/28 06:39:54;;;;;;;9.18;7.93;;;;;26.70;101238.00;;;;5109469;28;21037;-77
2021/06/28 06:42:22;;;;;;;8.18;7.32;;;;;26.70;101238.00;;;;5110012;28;20190;-77
2021/06/28 06:44:49;;;;;;;8.15;7.35;;;;;26.80;101233.00;;;;5104681;28;20208;-78
2021/06/28 06:47:16;;;;;;;8.45;7.57;;;;;26.90;101228.00;;;;5110156;28;20205;-77
2021/06/28 06:49:43;;;;;;;8.27;7.47;;;;;26.90;101223.00;;;;5109929;28;20571;-78
2021/06/28 06:52:12;;;;;;;8.88;7.95;;;;;27.00;101223.00;;;;5104788;28;20215;-78
2021/06/28 06:54:40;;;;;;;8.65;7.30;;;;;27.10;101224.00;;;;5106532;28;21020;-79
2021/06/28 06:57:10;;;;;;;8.60;7.80;;;;;27.10;101226.00;;;;5109156;28;20205;-79
2021/06/28 06:59:37;;;;;;;8.13;7.30;;;;;27.20;101232.00;;;;5109738;28;20202;-80
2021/06/28 07:02:05;;;;;;;9.82;7.88;;;;;27.20;101229.00;;;;5098147;28;20198;-80
2021/06/28 07:04:33;;;;;;;7.75;6.97;;;;;27.30;101232.00;;;;5108746;28;21144;-80
2021/06/28 07:07:00;;;;;;;8.35;7.53;;;;;27.40;101227.00;;;;5109160;28;20212;-79
2021/06/28 07:09:29;;;;;;;9.57;8.57;;;;;27.50;101218.00;;;;5109446;28;20694;-79
2021/06/28 07:11:57;;;;;;;9.50;8.60;;;;;27.50;101227.00;;;;5109340;28;20580;-79
2021/06/28 07:14:25;;;;;;;8.50;7.57;;;;;27.60;101220.00;;;;5106390;28;20228;-79
2021/06/28 07:16:52;;;;;;;8.90;8.02;;;;;27.70;101233.00;;;;5104252;28;20790;-79
2021/06/28 07:19:20;;;;;;;9.60;8.63;;;;;27.80;101237.00;;;;5106256;28;20201;-79
2021/06/28 07:21:48;;;;;;;8.05;7.25;;;;;27.80;101231.00;;;;5104628;28;20194;-79
2021/06/28 07:24:16;;;;;;;9.75;8.85;;;;;27.90;101226.00;;;;5109660;28;20197;-80
2021/06/28 07:26:45;;;;;;;9.27;8.10;;;;;28.00;101239.00;;;;5106488;28;20198;-77
2021/06/28 07:29:12;;;;;;;8.77;7.95;;;;;28.10;101237.00;;;;5102557;28;20267;-76
2021/06/28 07:31:39;;;;;;;10.10;9.10;;;;;28.20;101237.00;;;;5104697;28;20193;-76
2021/06/28 07:34:07;;;;;;;9.00;7.75;;;;;28.30;101236.00;;;;5099464;28;20293;-76
2021/06/28 07:36:34;;;;;;;8.95;8.02;;;;;28.40;101234.00;;;;5103436;28;20205;-76
2021/06/28 07:39:03;;;;;;;9.52;8.23;;;;;28.50;101240.00;;;;5102076;28;20205;-76
2021/06/28 07:41:31;;;;;;;9.52;8.55;;;;;28.60;101242.00;;;;5103672;28;20230;-76
2021/06/28 07:44:01;;;;;;;9.07;8.18;;;;;28.60;101246.00;;;;5106354;28;20201;-76
2021/06/28 07:46:28;;;;;;;11.10;8.02;;;;;28.70;101255.00;;;;5106747;28;20711;-76
2021/06/28 07:48:55;;;;;;;9.23;8.20;;;;;28.80;101257.00;;;;5101401;28;20547;-78
2021/06/28 07:51:23;;;;;;;9.13;8.20;;;;;28.80;101256.00;;;;5096478;28;20210;-77
2021/06/28 07:53:50;;;;;;;10.50;8.65;;;;;28.90;101266.00;;;;5098042;28;20252;-77
2021/06/28 07:56:18;;;;;;;8.88;8.02;;;;;29.10;101261.00;;;;5095571;28;20203;-77
2021/06/28 07:58:47;;;;;;;11.02;8.25;;;;;29.20;101263.00;;;;5094863;28;20234;-77
2021/06/28 08:01:17;;;;;;;9.45;8.15;;;;;29.20;101273.00;;;;5100480;28;20221;-77
2021/06/28 08:03:48;;;;;;;10.07;9.07;;;;;29.30;101271.00;;;;5097747;28;20193;-78
2021/06/28 08:06:17;;;;;;;8.25;7.40;;;;;29.40;101275.00;;;;5103275;28;20336;-78
2021/06/28 08:08:45;;;;;;;8.13;7.40;;;;;29.50;101282.00;;;;5104936;28;20202;-78
2021/06/28 08:11:13;;;;;;;10.95;7.50;;;;;29.60;101280.00;;;;5101654;28;20204;-78
2021/06/28 08:13:44;;;;;;;9.10;8.15;;;;;29.70;101265.00;;;;5108168;28;20206;-78
2021/06/28 08:16:11;;;;;;;9.20;8.30;;;;;29.80;101277.00;;;;5095557;28;20671;-78
2021/06/28 08:18:42;;;;;;;9.63;8.18;;;;;29.90;101275.00;;;;5094597;28;20185;-79
2021/06/28 08:21:10;;;;;;;9.10;7.97;;;;;30.00;101274.00;;;;5106523;28;20197;-78
2021/06/28 08:23:38;;;;;;;9.20;8.23;;;;;30.20;101266.00;;;;5115092;28;20234;-78
2021/06/28 08:26:05;;;;;;;8.18;7.35;;;;;30.20;101270.00;;;;5115679;28;20204;-79
2021/06/28 08:28:33;;;;;;;9.57;8.50;;;;;30.30;101269.00;;;;5115442;28;20209;-79
2021/06/28 08:31:00;;;;;;;8.57;7.78;;;;;30.40;101270.00;;;;5115912;28;20208;-80
2021/06/28 08:33:28;;;;;;;11.73;7.65;;;;;30.50;101273.00;;;;5114807;28;20224;-79
2021/06/28 08:35:57;;;;;;;8.88;7.97;;;;;30.50;101267.00;;;;5115401;28;20674;-79
2021/06/28 08:38:24;;;;;;;8.70;7.80;;;;;30.60;101271.00;;;;5113758;28;20313;-79
2021/06/28 08:40:51;;;;;;;9.20;8.32;;;;;30.70;101270.00;;;;5116043;28;20209;-79
2021/06/28 08:43:19;;;;;;;8.35;7.55;;;;;30.70;101274.00;;;;5115243;28;20204;-79
2021/06/28 08:45:46;;;;;;;10.85;7.95;;;;;30.80;101273.00;;;;5114839;28;20216;-79
2021/06/28 08:48:14;;;;;;;8.45;7.53;;;;;30.80;101269.00;;;;5115364;28;20205;-79
2021/06/28 08:50:42;;;;;;;8.88;7.97;;;;;30.80;101272.00;;;;5115360;28;20205;-78
2021/06/28 08:53:13;;;;;;;8.82;7.93;;;;;30.90;101261.00;;;;5114774;28;20209;-79
2021/06/28 08:55:42;;;;;;;7.68;6.97;;;;;30.90;101267.00;;;;5114802;28;20293;-79
2021/06/28 08:58:10;;;;;;;9.32;8.02;;;;;31.00;101266.00;;;;5115633;28;20228;-79
2021/06/28 09:00:37;;;;;;;8.60;7.15;;;;;31.00;101266.00;;;;5114504;28;20667;-78
2021/06/28 09:03:08;;;;;;;8.07;7.28;;;;;31.10;101269.00;;;;5115552;28;20197;-79
2021/06/28 09:05:52;;;;;;;8.70;7.38;;;;;31.10;101268.00;;;;5114588;28;20201;-78
2021/06/28 09:08:23;;;;;;;7.75;6.97;;;;;31.30;101263.00;;;;5115179;28;20205;-79
2021/06/28 09:10:50;;;;;;;7.90;7.10;;;;;31.40;101266.00;;;;5115190;28;20220;-79
2021/06/28 09:13:17;;;;;;;12.82;7.57;;;;;31.40;101260.00;;;;5113882;28;20197;-79
2021/06/28 09:15:48;;;;;;;8.23;7.07;;;;;31.40;101260.00;;;;5111894;28;20245;-79
2021/06/28 09:18:21;;;;;;;7.55;6.72;;;;;31.40;101260.00;;;;5111261;28;20240;-78
2021/06/28 09:20:49;;;;;;;7.55;6.47;;;;;31.50;101262.00;;;;5112017;28;20201;-79
2021/06/28 09:23:22;;;;;;;7.78;7.05;;;;;31.60;101270.00;;;;5111947;28;20197;-78
2021/06/28 09:25:52;;;;;;;6.70;6.10;;;;;31.70;101263.00;;;;5112126;28;20207;-79
2021/06/28 09:28:34;;;;;;;7.05;6.35;;;;;31.70;101265.00;;;;5111463;28;20201;-79
2021/06/28 09:31:02;;;;;;;6.90;5.80;;;;;31.90;101274.00;;;;5111881;28;20758;-79
2021/06/28 09:33:29;;;;;;;6.60;6.00;;;;;32.00;101283.00;;;;5111625;28;20197;-79
2021/06/28 09:35:57;;;;;;;6.53;5.70;;;;;32.10;101278.00;;;;5111677;28;20225;-79
2021/06/28 09:38:36;;;;;;;6.40;5.80;;;;;32.10;101275.00;;;;5111092;28;20274;-79
2021/06/28 09:41:27;;;;;;;5.63;5.10;;;;;32.10;101282.00;;;;5111741;28;20201;-78
2021/06/28 09:43:59;;;;;;;7.18;6.03;;;;;32.20;101279.00;;;;5110924;28;20691;-79
2021/06/28 09:46:26;;;;;;;5.90;5.35;;;;;32.20;101286.00;;;;5111567;28;20201;-78
2021/06/28 09:48:56;;;;;;;7.20;5.55;;;;;32.10;101291.00;;;;5111510;28;20197;-79
2021/06/28 09:51:27;;;;;;;4.93;4.53;;;;;32.10;101292.00;;;;5110078;28;20202;-79
2021/06/28 09:54:15;;;;;;;6.57;5.25;;;;;32.00;101291.00;;;;5111207;28;20210;-79
2021/06/28 09:56:45;;;;;;;5.07;4.60;;;;;31.90;101276.00;;;;5111150;28;20627;-79
2021/06/28 09:59:27;;;;;;;5.00;4.50;;;;;31.80;101279.00;;;;5111190;27;20250;-79
2021/06/28 10:02:18;;;;;;;5.40;4.85;;;;;31.70;101287.00;;;;5111136;28;20838;-79
2021/06/28 10:04:51;;;;;;;5.47;4.85;;;;;31.70;101285.00;;;;5097627;28;20210;-79
2021/06/28 10:07:30;;;;;;;5.43;4.93;;;;;31.50;101283.00;;;;5090452;28;20582;-79
2021/06/28 10:10:16;;;;;;;5.75;5.18;;;;;31.30;101294.00;;;;5103141;28;20205;-79
2021/06/28 10:12:45;;;;;;;9.18;4.97;;;;;31.40;101294.00;;;;5110996;28;20590;-79
2021/06/28 10:15:14;;;;;;;5.82;5.22;;;;;31.30;101292.00;;;;5109360;28;20221;-79
2021/06/28 10:17:42;;;;;;;5.75;5.07;;;;;31.20;101283.00;;;;5110923;28;20213;-79
2021/06/28 10:20:11;;;;;;;4.82;4.43;;;;;31.10;101290.00;;;;5110458;28;20209;-79
2021/06/28 10:22:40;;;;;;;5.10;4.53;;;;;31.00;101299.00;;;;5110405;28;20212;-79
2021/06/28 10:25:09;;;;;;;4.97;4.47;;;;;31.00;101296.00;;;;5110560;28;20202;-79
2021/06/28 10:27:38;;;;;;;4.72;4.22;;;;;30.90;101301.00;;;;5110437;28;20205;-79
2021/06/28 10:30:08;;;;;;;4.60;4.20;;;;;30.80;101296.00;;;;5110374;28;20197;-79
2021/06/28 10:32:37;;;;;;;5.13;4.63;;;;;30.80;101301.00;;;;5109623;28;20247;-79
2021/06/28 10:35:06;;;;;;;5.57;5.03;;;;;30.70;101293.00;;;;5110590;28;20229;-79
2021/06/28 10:37:37;;;;;;;5.90;5.10;;;;;30.60;101289.00;;;;5109543;28;20225;-79
2021/06/28 10:40:08;;;;;;;5.47;4.50;;;;;30.50;101282.00;;;;5110218;28;20220;-79
2021/06/28 10:42:40;;;;;;;4.22;3.83;;;;;30.50;101293.00;;;;5109616;28;20240;-79
2021/06/28 10:45:10;;;;;;;6.40;4.60;;;;;30.40;101290.00;;;;5109792;28;20197;-79
2021/06/28 10:47:38;;;;;;;5.22;4.03;;;;;30.40;101289.00;;;;5109859;28;20714;-79
2021/06/28 10:50:08;;;;;;;6.25;4.40;;;;;30.30;101293.00;;;;5109989;28;20205;-79
2021/06/28 10:52:52;;;;;;;4.88;4.35;;;;;30.20;101294.00;;;;5109330;28;20201;-79
2021/06/28 10:55:41;;;;;;;4.78;4.18;;;;;30.10;101292.00;;;;5109956;28;20323;-79
2021/06/28 10:58:32;;;;;;;7.47;4.57;;;;;30.00;101302.00;;;;5110245;28;20213;-79
2021/06/28 11:01:09;;;;;;;4.93;4.53;;;;;30.00;101299.00;;;;5109640;28;20694;-79
2021/06/28 11:03:36;;;;;;;5.75;4.07;;;;;30.00;101292.00;;;;5109913;28;20196;-79
2021/06/28 11:06:24;;;;;;;5.25;4.75;;;;;29.90;101294.00;;;;5109420;28;20209;-79
2021/06/28 11:09:05;;;;;;;4.72;4.32;;;;;29.80;101294.00;;;;5110317;28;20223;-79
2021/06/28 11:11:58;;;;;;;4.50;4.10;;;;;29.80;101287.00;;;;5109300;28;20225;-79
2021/06/28 11:14:46;;;;;;;4.22;3.83;;;;;29.70;101292.00;;;;5109304;28;20499;-79
2021/06/28 11:17:16;;;;;;;7.55;5.57;;;;;29.80;101286.00;;;;5109929;28;20197;-79
2021/06/28 11:20:03;;;;;;;7.45;5.55;;;;;29.70;101288.00;;;;5109597;28;20201;-79
2021/06/28 11:22:40;;;;;;;5.55;4.88;;;;;29.70;101294.00;;;;5108562;28;20205;-79
2021/06/28 11:25:18;;;;;;;5.47;4.97;;;;;29.70;101291.00;;;;5109552;28;20208;-79
2021/06/28 11:27:47;;;;;;;6.15;5.20;;;;;29.70;101296.00;;;;5109628;28;20205;-79
2021/06/28 11:30:23;;;;;;;6.68;4.82;;;;;29.70;101294.00;;;;5109791;28;20217;-79
2021/06/28 11:33:01;;;;;;;5.32;4.82;;;;;29.60;101288.00;;;;5109819;28;20197;-79
2021/06/28 11:35:40;;;;;;;5.47;4.97;;;;;29.60;101279.00;;;;5108527;28;20323;-79
2021/06/28 11:38:29;;;;;;;5.53;5.00;;;;;29.50;101276.00;;;;5108539;28;20225;-78
2021/06/28 11:40:58;;;;;;;5.80;5.20;;;;;29.60;101272.00;;;;5106614;28;20208;-79
2021/06/28 11:43:50;;;;;;;5.47;4.97;;;;;29.40;101273.00;;;;5109215;28;20624;-79
2021/06/28 11:46:26;;;;;;;8.25;4.43;;;;;29.50;101287.00;;;;5092683;28;20254;-79
2021/06/28 11:48:56;;;;;;;6.97;4.88;;;;;29.50;101281.00;;;;5106275;28;20200;-80
2021/06/28 11:51:25;;;;;;;5.63;5.03;;;;;29.50;101284.00;;;;5098866;28;20202;-79
2021/06/28 11:53:58;;;;;;;5.38;4.50;;;;;29.40;101278.00;;;;5109226;28;20550;-78
2021/06/28 11:56:28;;;;;;;6.10;5.50;;;;;29.40;101283.00;;;;5107141;28;20223;-79
2021/06/28 11:59:00;;;;;;;5.90;5.20;;;;;29.40;101281.00;;;;5089372;28;20218;-78
2021/06/28 12:01:31;;;;;;;5.97;5.38;;;;;29.40;101282.00;;;;5093663;28;20190;-79
2021/06/28 12:04:01;;;;;;;5.80;5.07;;;;;29.40;101281.00;;;;5100890;28;20193;-78
2021/06/28 12:06:30;;;;;;;6.05;5.45;;;;;29.40;101284.00;;;;5108784;28;20194;-79
2021/06/28 12:09:09;;;;;;;6.68;5.65;;;;;29.30;101273.00;;;;5106806;28;20213;-79
2021/06/28 12:11:47;;;;;;;5.55;5.05;;;;;29.30;101273.00;;;;5088257;28;20706;-79
2021/06/28 12:14:32;;;;;;;5.63;5.13;;;;;29.20;101277.00;;;;5088742;28;20240;-78
2021/06/28 12:17:01;;;;;;;5.75;5.28;;;;;29.30;101271.00;;;;5093107;28;20217;-80
2021/06/28 12:19:29;;;;;;;6.18;5.57;;;;;29.30;101261.00;;;;5087845;28;20198;-80